Time;durP1;ratioP1;P1;durP2;ratioP2;P2;SDS_P1;SDS_P2;PMS_P1;PMS_P2;Temp;Humidity;BMP_temperature;BMP_pressure;BME280_temperature;BME280_humidity;BME280_pressure;Samples;Min_cycle;Max_cycle;Signal;HPM_P1;HPM_P2
2023/09/20 00:01:50;;;;;;;1.10;1.00;;;23.80;48.90;;;;;;5088886;27;45238;-67
2023/09/20 00:04:17;;;;;;;1.05;0.90;;;23.80;49.00;;;;;;5089044;27;45497;-67
2023/09/20 00:06:45;;;;;;;1.10;1.00;;;23.80;49.00;;;;;;5088471;27;45543;-67
2023/09/20 00:09:13;;;;;;;1.05;0.88;;;23.80;49.10;;;;;;5088539;27;45331;-67
2023/09/20 00:11:40;;;;;;;1.00;0.90;;;23.80;49.10;;;;;;5088744;27;45207;-67
2023/09/20 00:14:07;;;;;;;1.20;0.82;;;23.70;49.00;;;;;;5088734;27;45429;-67
2023/09/20 00:16:35;;;;;;;0.90;0.70;;;23.70;49.10;;;;;;5088286;27;45609;-67
2023/09/20 00:19:02;;;;;;;1.15;1.00;;;23.70;49.00;;;;;;5088557;27;45410;-67
2023/09/20 00:21:29;;;;;;;1.13;0.90;;;23.70;49.10;;;;;;5088526;27;45293;-67
2023/09/20 00:23:56;;;;;;;1.17;1.02;;;23.70;49.10;;;;;;5088630;27;45311;-67
2023/09/20 00:26:23;;;;;;;1.25;1.00;;;23.70;49.10;;;;;;5088208;27;46350;-67
2023/09/20 00:29:02;;;;;;;1.05;0.98;;;23.70;49.10;;;;;;5088301;27;45328;-68
2023/09/20 00:31:28;;;;;;;0.95;0.77;;;23.60;49.10;;;;;;5088449;27;45307;-67
2023/09/20 00:33:57;;;;;;;1.00;0.85;;;23.60;49.20;;;;;;5088435;27;45249;-67
2023/09/20 00:36:24;;;;;;;1.08;0.98;;;23.60;49.20;;;;;;5088096;27;46996;-68
2023/09/20 00:38:52;;;;;;;0.75;0.70;;;23.60;49.20;;;;;;5088441;27;45357;-67
2023/09/20 00:41:21;;;;;;;1.13;1.00;;;23.60;49.20;;;;;;5087628;27;45334;-67
2023/09/20 00:43:48;;;;;;;0.70;0.70;;;23.60;49.20;;;;;;5087522;27;45339;-67
2023/09/20 00:46:15;;;;;;;1.67;1.00;;;23.60;49.20;;;;;;5087928;27;46401;-68
2023/09/20 00:48:45;;;;;;;0.80;0.80;;;23.60;49.30;;;;;;5087946;27;45425;-67
2023/09/20 00:51:14;;;;;;;1.08;0.73;;;23.50;49.20;;;;;;5088112;27;45294;-67
2023/09/20 00:53:41;;;;;;;1.48;0.90;;;23.50;49.30;;;;;;5088141;27;45331;-67
2023/09/20 00:56:09;;;;;;;1.02;0.73;;;23.50;49.30;;;;;;5087928;27;45444;-67
2023/09/20 00:58:36;;;;;;;0.77;0.77;;;23.50;49.30;;;;;;5088172;27;45208;-67
2023/09/20 01:01:06;;;;;;;0.70;0.70;;;23.50;49.40;;;;;;5088032;27;45342;-67
2023/09/20 01:03:33;;;;;;;0.90;0.88;;;23.50;49.40;;;;;;5087934;27;45319;-67
2023/09/20 01:06:01;;;;;;;1.25;0.70;;;23.50;49.40;;;;;;5087701;27;45267;-67
2023/09/20 01:08:29;;;;;;;0.93;0.77;;;23.50;49.40;;;;;;5087700;27;45180;-67
2023/09/20 01:10:56;;;;;;;1.25;0.80;;;23.40;49.40;;;;;;5087893;27;45405;-67
2023/09/20 01:13:23;;;;;;;1.67;0.80;;;23.40;49.40;;;;;;5087810;27;45349;-67
2023/09/20 01:15:50;;;;;;;1.05;0.80;;;23.40;50.00;;;;;;5087644;27;45305;-67
2023/09/20 01:18:17;;;;;;;0.65;0.65;;;23.40;49.40;;;;;;5087560;27;45252;-67
2023/09/20 01:20:44;;;;;;;1.15;0.80;;;23.40;49.40;;;;;;5087685;27;45310;-67
2023/09/20 01:23:12;;;;;;;1.30;1.00;;;23.30;49.40;;;;;;5087780;27;45344;-67
2023/09/20 01:25:39;;;;;;;0.55;0.55;;;23.30;49.40;;;;;;5087234;27;48360;-67
2023/09/20 01:28:08;;;;;;;0.90;0.90;;;23.30;49.40;;;;;;5086658;27;45183;-67
2023/09/20 01:30:36;;;;;;;0.70;0.70;;;23.30;50.10;;;;;;5087004;27;45374;-67
2023/09/20 01:33:05;;;;;;;0.85;0.70;;;23.30;49.50;;;;;;5087541;27;45493;-67
2023/09/20 01:35:32;;;;;;;1.63;0.88;;;23.30;49.50;;;;;;5087142;27;46343;-67
2023/09/20 01:37:59;;;;;;;1.10;0.80;;;23.30;49.50;;;;;;5087378;27;45402;-67
2023/09/20 01:40:28;;;;;;;1.40;0.88;;;23.30;49.50;;;;;;5087319;27;45320;-67
2023/09/20 01:42:57;;;;;;;0.73;0.73;;;23.20;49.40;;;;;;5087086;27;45250;-67
2023/09/20 01:45:24;;;;;;;1.73;0.85;;;23.20;49.50;;;;;;5087195;27;47638;-67
2023/09/20 01:47:51;;;;;;;0.70;0.70;;;23.20;49.50;;;;;;5087611;27;45308;-67
2023/09/20 01:50:19;;;;;;;0.70;0.70;;;23.20;49.50;;;;;;5087101;27;45348;-67
2023/09/20 01:52:48;;;;;;;0.65;0.65;;;23.20;49.50;;;;;;5087560;27;45134;-67
2023/09/20 01:55:17;;;;;;;0.80;0.70;;;23.20;49.50;;;;;;5086962;27;46633;-67
2023/09/20 01:57:46;;;;;;;1.63;0.85;;;23.20;49.60;;;;;;5087056;27;45314;-67
2023/09/20 02:00:16;;;;;;;0.63;0.63;;;23.20;49.60;;;;;;5087084;27;45264;-67
2023/09/20 02:02:44;;;;;;;1.27;0.70;;;23.20;49.60;;;;;;5087223;27;45643;-67
2023/09/20 02:05:17;;;;;;;0.70;0.70;;;23.10;49.70;;;;;;5091999;27;45228;-67
2023/09/20 02:07:45;;;;;;;0.75;0.75;;;23.10;49.60;;;;;;5088280;27;45374;-67
2023/09/20 02:10:12;;;;;;;1.00;0.90;;;23.10;49.60;;;;;;5087788;27;45313;-67
2023/09/20 02:12:38;;;;;;;0.90;0.90;;;23.10;49.60;;;;;;5087118;27;45382;-67
2023/09/20 02:15:11;;;;;;;1.15;0.80;;;23.10;49.70;;;;;;5086623;27;45641;-67
2023/09/20 02:17:38;;;;;;;1.17;0.98;;;23.10;49.70;;;;;;5087043;27;45450;-67
2023/09/20 02:20:08;;;;;;;1.45;0.70;;;23.00;49.60;;;;;;5086801;27;45295;-67
2023/09/20 02:22:37;;;;;;;0.95;0.82;;;23.10;50.00;;;;;;5086642;27;45332;-67
2023/09/20 02:25:08;;;;;;;0.80;0.80;;;23.10;49.70;;;;;;5086052;27;47271;-67
2023/09/20 02:27:35;;;;;;;2.15;0.80;;;23.00;49.70;;;;;;5086430;27;45158;-67
2023/09/20 02:30:03;;;;;;;0.90;0.60;;;23.00;49.60;;;;;;5086626;27;45161;-67
2023/09/20 02:32:32;;;;;;;0.90;0.75;;;23.00;49.70;;;;;;5086776;27;45552;-67
2023/09/20 02:35:03;;;;;;;1.10;0.90;;;23.00;49.70;;;;;;5086320;27;45737;-67
2023/09/20 02:37:29;;;;;;;1.08;0.80;;;23.00;50.30;;;;;;5086421;27;45395;-67
2023/09/20 02:39:56;;;;;;;1.45;0.70;;;23.00;49.70;;;;;;5086903;27;45416;-66
2023/09/20 02:42:26;;;;;;;0.60;0.60;;;23.00;49.70;;;;;;5090068;27;45311;-67
2023/09/20 02:44:53;;;;;;;0.80;0.80;;;23.00;49.70;;;;;;5090045;27;45128;-67
2023/09/20 02:47:21;;;;;;;0.80;0.60;;;23.00;49.80;;;;;;5090232;27;45620;-67
2023/09/20 02:49:49;;;;;;;0.60;0.60;;;22.90;49.70;;;;;;5090276;27;45390;-67
2023/09/20 02:52:17;;;;;;;0.80;0.80;;;23.00;49.80;;;;;;5090247;27;45440;-67
2023/09/20 02:54:44;;;;;;;0.85;0.70;;;22.90;49.80;;;;;;5089705;27;48552;-67
2023/09/20 02:57:11;;;;;;;2.45;0.82;;;22.90;49.70;;;;;;5089812;27;45399;-67
2023/09/20 02:59:39;;;;;;;0.95;0.82;;;22.90;49.70;;;;;;5089948;27;45308;-67
2023/09/20 03:02:06;;;;;;;0.85;0.82;;;22.90;49.70;;;;;;5090165;27;45386;-67
2023/09/20 03:04:33;;;;;;;1.00;0.80;;;22.90;49.80;;;;;;5089575;27;45298;-67
2023/09/20 03:07:02;;;;;;;0.90;0.63;;;22.90;49.80;;;;;;5089883;27;45317;-67
2023/09/20 03:09:35;;;;;;;1.25;0.80;;;22.90;49.80;;;;;;5089693;27;45365;-67
2023/09/20 03:12:05;;;;;;;1.13;0.77;;;22.90;49.80;;;;;;5089834;27;45418;-67
2023/09/20 03:14:33;;;;;;;0.73;0.73;;;22.90;49.80;;;;;;5089170;27;45252;-68
2023/09/20 03:17:02;;;;;;;0.93;0.70;;;22.90;49.80;;;;;;5088960;27;45349;-67
2023/09/20 03:19:30;;;;;;;1.00;0.90;;;22.80;49.80;;;;;;5089629;27;45340;-67
2023/09/20 03:21:57;;;;;;;0.88;0.88;;;22.80;49.90;;;;;;5089618;27;45538;-67
2023/09/20 03:24:25;;;;;;;0.70;0.70;;;22.80;49.80;;;;;;5089246;27;46235;-67
2023/09/20 03:26:52;;;;;;;0.60;0.60;;;22.80;49.90;;;;;;5089458;27;45320;-67
2023/09/20 03:29:19;;;;;;;0.77;0.77;;;22.80;49.80;;;;;;5089305;27;45353;-67
2023/09/20 03:31:48;;;;;;;1.08;0.80;;;22.70;49.80;;;;;;5089577;27;45400;-67
2023/09/20 03:34:14;;;;;;;1.58;0.80;;;22.80;49.90;;;;;;5089030;27;46358;-67
2023/09/20 03:36:43;;;;;;;1.10;0.63;;;22.70;49.90;;;;;;5089324;27;45487;-67
2023/09/20 03:39:11;;;;;;;0.88;0.80;;;22.70;49.90;;;;;;5089402;27;45272;-67
2023/09/20 03:41:40;;;;;;;0.60;0.60;;;22.70;49.90;;;;;;5089155;27;45294;-68
2023/09/20 03:44:07;;;;;;;1.00;0.90;;;22.70;49.90;;;;;;5089007;27;46496;-67
2023/09/20 03:46:34;;;;;;;1.45;0.85;;;22.70;49.90;;;;;;5089367;27;45312;-67
2023/09/20 03:49:01;;;;;;;0.68;0.68;;;22.70;50.00;;;;;;5089146;27;45260;-67
2023/09/20 03:51:28;;;;;;;1.55;0.70;;;22.70;50.00;;;;;;5089110;27;45240;-67
2023/09/20 03:53:55;;;;;;;0.98;0.90;;;22.70;49.90;;;;;;5088582;27;45484;-67
2023/09/20 03:56:21;;;;;;;1.20;0.63;;;22.70;50.00;;;;;;5089131;27;45252;-67
2023/09/20 03:58:50;;;;;;;0.70;0.70;;;22.70;50.00;;;;;;5089227;27;45462;-67
2023/09/20 04:01:17;;;;;;;0.50;0.50;;;22.70;49.90;;;;;;5089327;27;45324;-66
2023/09/20 04:03:45;;;;;;;0.60;0.60;;;22.70;50.60;;;;;;5087968;27;45564;-67
2023/09/20 04:06:12;;;;;;;0.80;0.80;;;22.60;49.90;;;;;;5088669;27;45385;-67
2023/09/20 04:08:39;;;;;;;0.50;0.50;;;22.60;50.00;;;;;;5088980;27;45275;-67
2023/09/20 04:11:06;;;;;;;0.90;0.82;;;22.60;50.00;;;;;;5089162;27;45203;-67
2023/09/20 04:13:32;;;;;;;1.42;0.90;;;22.60;50.00;;;;;;5088555;27;46734;-67
2023/09/20 04:16:03;;;;;;;0.73;0.73;;;22.60;50.00;;;;;;5088863;27;45289;-67
2023/09/20 04:18:30;;;;;;;0.73;0.60;;;22.60;50.00;;;;;;5089137;27;45361;-67
2023/09/20 04:20:57;;;;;;;0.90;0.90;;;22.60;50.00;;;;;;5088714;27;45371;-66
2023/09/20 04:23:24;;;;;;;0.60;0.60;;;22.60;50.00;;;;;;5088302;27;45385;-67
2023/09/20 04:25:51;;;;;;;1.38;0.95;;;22.60;50.00;;;;;;5088450;27;45611;-67
2023/09/20 04:28:18;;;;;;;0.70;0.70;;;22.60;50.10;;;;;;5088677;27;45459;-67
2023/09/20 04:30:47;;;;;;;1.52;0.70;;;22.60;50.10;;;;;;5088872;27;45375;-67
2023/09/20 04:33:16;;;;;;;0.65;0.60;;;22.50;50.00;;;;;;5088399;27;46334;-67
2023/09/20 04:35:43;;;;;;;0.90;0.90;;;22.50;50.00;;;;;;5088419;27;45332;-67
2023/09/20 04:38:11;;;;;;;0.90;0.90;;;22.50;50.00;;;;;;5088741;27;45386;-67
2023/09/20 04:40:38;;;;;;;1.08;0.70;;;22.50;50.00;;;;;;5089047;27;45422;-67
2023/09/20 04:43:07;;;;;;;0.90;0.60;;;22.50;50.70;;;;;;5087934;27;45293;-67
2023/09/20 04:45:34;;;;;;;2.00;0.77;;;22.50;50.10;;;;;;5088178;27;45450;-67
2023/09/20 04:48:00;;;;;;;1.52;0.70;;;22.50;50.10;;;;;;5088003;27;45377;-67
2023/09/20 04:50:29;;;;;;;0.65;0.65;;;22.50;50.10;;;;;;5088751;27;45277;-67
2023/09/20 04:52:56;;;;;;;0.80;0.80;;;22.50;50.10;;;;;;5087415;27;46676;-67
2023/09/20 04:55:24;;;;;;;0.63;0.63;;;22.50;50.10;;;;;;5088007;27;45496;-67
2023/09/20 04:57:51;;;;;;;1.63;0.80;;;22.40;50.10;;;;;;5088133;27;45347;-66
2023/09/20 05:00:26;;;;;;;0.90;0.65;;;22.40;50.10;;;;;;5088362;27;45188;-67
2023/09/20 05:02:52;;;;;;;0.70;0.70;;;22.40;50.10;;;;;;5086372;27;45461;-67
2023/09/20 05:05:23;;;;;;;0.63;0.63;;;22.40;50.10;;;;;;5087777;27;45365;-67
2023/09/20 05:07:52;;;;;;;0.50;0.50;;;22.40;50.10;;;;;;5087854;27;45370;-67
2023/09/20 05:10:18;;;;;;;0.60;0.60;;;22.40;50.10;;;;;;5087738;27;45387;-67
2023/09/20 05:12:47;;;;;;;0.70;0.70;;;22.40;50.10;;;;;;5087716;27;45450;-67
2023/09/20 05:15:15;;;;;;;0.55;0.55;;;22.40;50.10;;;;;;5087272;27;45278;-67
2023/09/20 05:17:43;;;;;;;0.60;0.60;;;22.40;50.10;;;;;;5087223;27;45378;-67
2023/09/20 05:20:12;;;;;;;0.98;0.80;;;22.40;50.20;;;;;;5087462;27;45277;-67
2023/09/20 05:22:39;;;;;;;0.95;0.80;;;22.30;50.10;;;;;;5086882;27;46380;-67
2023/09/20 05:25:09;;;;;;;0.75;0.60;;;22.30;50.20;;;;;;5086824;27;45385;-67
2023/09/20 05:27:36;;;;;;;0.70;0.70;;;22.30;50.20;;;;;;5087219;27;45283;-67
2023/09/20 05:30:03;;;;;;;2.25;0.80;;;22.30;50.20;;;;;;5087037;27;45414;-67
2023/09/20 05:32:30;;;;;;;0.60;0.60;;;22.30;50.20;;;;;;5086613;27;45604;-67
2023/09/20 05:34:57;;;;;;;1.17;0.90;;;22.30;50.20;;;;;;5086786;27;45305;-67
2023/09/20 05:37:24;;;;;;;0.73;0.70;;;22.30;50.20;;;;;;5086898;27;45342;-67
2023/09/20 05:39:50;;;;;;;0.80;0.80;;;22.30;50.20;;;;;;5087010;27;45423;-67
2023/09/20 05:42:19;;;;;;;2.05;0.75;;;22.20;50.10;;;;;;5086456;27;45488;-67
2023/09/20 05:44:46;;;;;;;1.52;0.77;;;22.20;50.10;;;;;;5086637;27;45320;-67
2023/09/20 05:47:13;;;;;;;0.90;0.82;;;22.20;50.10;;;;;;5086947;27;45199;-67
2023/09/20 05:49:40;;;;;;;0.93;0.80;;;22.20;50.10;;;;;;5086948;27;45407;-67
2023/09/20 05:52:07;;;;;;;0.90;0.80;;;22.20;50.10;;;;;;5086530;27;46696;-67
2023/09/20 05:54:33;;;;;;;0.60;0.60;;;22.20;50.10;;;;;;5086579;27;45343;-67
2023/09/20 05:57:02;;;;;;;1.08;0.77;;;22.20;50.10;;;;;;5087134;27;45298;-67
2023/09/20 05:59:31;;;;;;;1.00;0.90;;;22.20;50.10;;;;;;5087144;27;45256;-67
2023/09/20 06:01:58;;;;;;;0.90;0.90;;;22.20;50.10;;;;;;5086442;27;45524;-67
2023/09/20 06:04:25;;;;;;;1.27;0.82;;;22.20;50.10;;;;;;5086645;27;45345;-66
2023/09/20 06:06:54;;;;;;;1.52;0.80;;;22.20;50.10;;;;;;5087005;27;45359;-67
2023/09/20 06:09:21;;;;;;;2.05;1.10;;;22.20;50.00;;;;;;5086992;27;45353;-67
2023/09/20 06:11:48;;;;;;;0.80;0.80;;;22.20;50.00;;;;;;5086486;27;45356;-67
2023/09/20 06:14:16;;;;;;;0.70;0.70;;;22.30;50.00;;;;;;5087934;27;45354;-67
2023/09/20 06:16:44;;;;;;;1.00;0.90;;;22.30;50.10;;;;;;5090997;27;45142;-67
2023/09/20 06:19:11;;;;;;;1.25;0.98;;;22.20;50.00;;;;;;5088838;27;45206;-68
2023/09/20 06:21:38;;;;;;;0.70;0.70;;;22.30;50.00;;;;;;5087926;27;46390;-67
2023/09/20 06:24:10;;;;;;;0.95;0.80;;;22.30;50.00;;;;;;5087778;27;45342;-67
2023/09/20 06:26:40;;;;;;;0.60;0.60;;;22.30;50.00;;;;;;5088279;27;45414;-67
2023/09/20 06:29:09;;;;;;;1.00;0.75;;;22.30;50.00;;;;;;5088372;27;45640;-67
2023/09/20 06:31:37;;;;;;;1.02;0.70;;;22.30;49.90;;;;;;5087083;27;46543;-67
2023/09/20 06:34:05;;;;;;;0.80;0.80;;;22.30;50.00;;;;;;5086452;27;45303;-67
2023/09/20 06:36:32;;;;;;;1.55;1.02;;;22.30;50.00;;;;;;5086940;27;45318;-67
2023/09/20 06:38:59;;;;;;;0.80;0.80;;;22.30;49.90;;;;;;5086597;27;45315;-68
2023/09/20 06:41:26;;;;;;;0.82;0.70;;;22.30;49.90;;;;;;5086351;27;47933;-68
2023/09/20 06:43:53;;;;;;;0.77;0.75;;;22.40;49.90;;;;;;5085887;27;45475;-67
2023/09/20 06:46:22;;;;;;;0.80;0.70;;;22.40;49.90;;;;;;5086367;27;45365;-67
2023/09/20 06:48:49;;;;;;;0.82;0.80;;;22.40;49.90;;;;;;5086740;27;45189;-67
2023/09/20 06:51:17;;;;;;;0.70;0.70;;;22.40;49.90;;;;;;5086126;27;45468;-67
2023/09/20 06:53:46;;;;;;;1.15;0.75;;;22.40;49.80;;;;;;5085688;27;45398;-67
2023/09/20 06:56:13;;;;;;;1.88;0.82;;;22.40;49.90;;;;;;5086269;27;45377;-67
2023/09/20 06:58:45;;;;;;;0.80;0.80;;;22.40;49.80;;;;;;5086355;27;45486;-67
2023/09/20 07:01:12;;;;;;;1.42;0.82;;;22.40;49.80;;;;;;5085750;27;46412;-67
2023/09/20 07:03:39;;;;;;;0.70;0.60;;;22.40;49.80;;;;;;5085891;27;44709;-67
2023/09/20 07:06:06;;;;;;;0.88;0.88;;;22.50;49.80;;;;;;5086308;27;45445;-67
2023/09/20 07:08:34;;;;;;;1.00;0.90;;;22.50;49.90;;;;;;5083346;27;45389;-67
2023/09/20 07:11:02;;;;;;;0.80;0.77;;;22.50;49.80;;;;;;5085835;27;45232;-67
2023/09/20 07:13:31;;;;;;;0.70;0.70;;;22.50;49.80;;;;;;5086008;27;45342;-67
2023/09/20 07:15:59;;;;;;;1.20;0.88;;;22.50;49.80;;;;;;5086456;27;45315;-67
2023/09/20 07:18:27;;;;;;;1.40;1.10;;;22.50;49.80;;;;;;5086630;27;45426;-67
2023/09/20 07:20:55;;;;;;;0.70;0.70;;;22.50;49.80;;;;;;5085915;27;45420;-67
2023/09/20 07:23:23;;;;;;;0.80;0.70;;;22.50;49.80;;;;;;5085905;27;45314;-67
2023/09/20 07:25:52;;;;;;;0.95;0.88;;;22.50;49.80;;;;;;5086210;27;45372;-67
2023/09/20 07:28:19;;;;;;;1.20;0.90;;;22.50;49.80;;;;;;5089242;27;45425;-67
2023/09/20 07:30:46;;;;;;;0.82;0.68;;;22.50;49.90;;;;;;5089171;27;47557;-67
2023/09/20 07:33:19;;;;;;;0.93;0.80;;;22.50;49.90;;;;;;5088926;27;45324;-67
2023/09/20 07:35:48;;;;;;;0.75;0.70;;;22.50;49.90;;;;;;5089360;27;45342;-66
2023/09/20 07:38:24;;;;;;;1.20;0.80;;;22.50;49.90;;;;;;5089410;27;45369;-67
2023/09/20 07:40:53;;;;;;;1.48;0.93;;;22.50;49.90;;;;;;5088941;27;46676;-67
2023/09/20 07:43:21;;;;;;;1.10;0.85;;;22.50;49.90;;;;;;5088485;27;45345;-67
2023/09/20 07:45:49;;;;;;;1.02;0.75;;;22.60;49.90;;;;;;5089098;27;45418;-68
2023/09/20 07:48:17;;;;;;;1.10;0.88;;;22.60;49.90;;;;;;5088822;27;45463;-68
2023/09/20 07:50:45;;;;;;;0.80;0.80;;;22.60;49.90;;;;;;5088673;27;47593;-68
2023/09/20 07:53:15;;;;;;;0.63;0.63;;;22.60;49.80;;;;;;5088988;27;44719;-68
2023/09/20 07:55:45;;;;;;;1.90;0.82;;;22.60;49.80;;;;;;5089002;27;45386;-68
2023/09/20 07:58:14;;;;;;;0.60;0.60;;;22.60;49.80;;;;;;5089006;27;45298;-68
2023/09/20 08:00:42;;;;;;;2.67;1.00;;;22.60;49.80;;;;;;5089111;27;47329;-68
2023/09/20 08:03:10;;;;;;;1.77;0.90;;;22.60;49.80;;;;;;5088431;27;45254;-68
2023/09/20 08:05:38;;;;;;;0.80;0.80;;;22.60;49.70;;;;;;5088638;27;45317;-68
2023/09/20 08:08:06;;;;;;;0.85;0.70;;;22.60;49.80;;;;;;5089048;27;45339;-68
2023/09/20 08:10:33;;;;;;;0.75;0.75;;;22.70;49.80;;;;;;5088171;27;45521;-68
2023/09/20 08:13:00;;;;;;;0.90;0.90;;;22.70;49.80;;;;;;5088151;27;45108;-68
2023/09/20 08:15:29;;;;;;;1.00;0.75;;;22.70;49.80;;;;;;5088217;27;45328;-68
2023/09/20 08:20:40;;;;;;;2.78;0.82;;;22.70;49.70;;;;;;5085425;28;45426;-68
2023/09/20 09:01:34;;;;;;;0.80;0.80;;;23.00;50.10;;;;;;5085272;28;45340;-69
2023/09/20 09:04:02;;;;;;;1.73;0.80;;;23.00;49.80;;;;;;5087390;27;45864;-69
2023/09/20 09:06:29;;;;;;;1.88;0.90;;;23.10;49.70;;;;;;5087640;27;45327;-69
2023/09/20 09:08:56;;;;;;;0.70;0.70;;;23.10;49.80;;;;;;5087828;27;45231;-69
2023/09/20 09:11:24;;;;;;;0.98;0.90;;;23.10;49.80;;;;;;5087767;27;45410;-69
2023/09/20 09:13:54;;;;;;;1.30;0.80;;;23.10;49.70;;;;;;5087613;27;47621;-69
2023/09/20 09:16:21;;;;;;;0.80;0.80;;;23.20;49.80;;;;;;5088001;27;45142;-68
2023/09/20 09:18:48;;;;;;;1.38;0.90;;;23.20;49.60;;;;;;5087647;27;45371;-68
2023/09/20 09:21:18;;;;;;;0.60;0.60;;;23.20;49.60;;;;;;5089475;27;45462;-70
2023/09/20 09:23:46;;;;;;;0.80;0.80;;;23.20;49.60;;;;;;5088182;27;45475;-70
2023/09/20 09:26:13;;;;;;;1.00;0.90;;;23.30;49.60;;;;;;5087815;27;45262;-68
2023/09/20 09:28:43;;;;;;;0.93;0.80;;;23.30;49.60;;;;;;5087597;27;45633;-69
2023/09/20 09:31:10;;;;;;;1.13;0.80;;;23.30;49.60;;;;;;5087730;27;45294;-69
2023/09/20 09:33:37;;;;;;;2.35;1.00;;;23.30;49.50;;;;;;5084997;27;46527;-68
2023/09/20 09:36:05;;;;;;;2.40;0.77;;;23.40;49.50;;;;;;5087689;27;45133;-69
2023/09/20 09:38:34;;;;;;;0.80;0.80;;;23.40;49.60;;;;;;5087513;27;45351;-69
2023/09/20 09:41:02;;;;;;;1.42;0.77;;;23.40;49.50;;;;;;5087736;27;45167;-69
2023/09/20 09:43:29;;;;;;;0.80;0.80;;;23.50;49.50;;;;;;5086541;27;45375;-69
2023/09/20 09:45:56;;;;;;;0.73;0.73;;;23.50;49.60;;;;;;5087186;27;45450;-69
2023/09/20 09:48:24;;;;;;;0.90;0.90;;;23.50;49.50;;;;;;5087396;27;45256;-69
2023/09/20 09:50:51;;;;;;;1.00;0.80;;;23.60;49.80;;;;;;5086936;27;45566;-68
2023/09/20 09:53:20;;;;;;;1.00;0.90;;;23.60;49.80;;;;;;5086615;27;46717;-68
2023/09/20 09:55:49;;;;;;;0.80;0.80;;;23.70;49.90;;;;;;5086895;27;45270;-68
2023/09/20 09:58:16;;;;;;;2.40;0.90;;;23.70;49.80;;;;;;5086961;27;45171;-69
2023/09/20 10:00:45;;;;;;;1.20;1.10;;;23.70;49.80;;;;;;5087302;27;45310;-69
2023/09/20 10:03:15;;;;;;;0.70;0.70;;;23.70;49.90;;;;;;5087037;27;45321;-69
2023/09/20 10:05:46;;;;;;;2.20;0.80;;;23.80;49.80;;;;;;5086991;27;45303;-68
2023/09/20 10:08:13;;;;;;;1.17;0.80;;;23.80;49.80;;;;;;5086842;28;45343;-67
2023/09/20 10:10:41;;;;;;;0.95;0.90;;;23.90;49.80;;;;;;5086818;27;45323;-67
2023/09/20 10:13:12;;;;;;;1.27;0.90;;;23.90;50.50;;;;;;5086067;27;45965;-67
2023/09/20 10:15:43;;;;;;;0.80;0.70;;;23.90;49.80;;;;;;5086709;27;45320;-66
2023/09/20 10:18:11;;;;;;;0.77;0.77;;;24.00;49.80;;;;;;5087491;27;45311;-67
2023/09/20 10:21:10;;;;;;;;;;;;;;;;;;;;;
2023/09/20 10:23:38;;;;;;;1.20;0.90;;;24.10;49.80;;;;;;5080891;28;72287;-69
2023/09/20 10:26:13;;;;;;;3.50;0.90;;;24.20;49.70;;;;;;5084939;27;45242;-67
2023/09/20 10:28:42;;;;;;;0.75;0.73;;;24.20;49.60;;;;;;5085482;27;45811;-68
2023/09/20 10:31:11;;;;;;;0.60;0.60;;;24.30;50.20;;;;;;5085308;27;45637;-67
2023/09/20 10:33:45;;;;;;;1.05;0.95;;;24.30;49.50;;;;;;5085368;27;45271;-67
2023/09/20 10:36:14;;;;;;;0.95;0.70;;;24.40;50.10;;;;;;5086206;27;45296;-67
2023/09/20 10:38:44;;;;;;;0.70;0.70;;;24.50;49.50;;;;;;5085623;27;45402;-67
2023/09/20 10:41:12;;;;;;;0.90;0.70;;;24.50;49.50;;;;;;5085348;27;45336;-67
2023/09/20 10:43:51;;;;;;;1.77;0.95;;;24.60;49.40;;;;;;5085086;27;46991;-68
2023/09/20 10:46:22;;;;;;;1.58;0.85;;;24.60;49.30;;;;;;5085725;27;45452;-67
2023/09/20 10:48:50;;;;;;;1.63;0.90;;;24.70;49.30;;;;;;5085559;27;45291;-67
2023/09/20 10:51:54;;;;;;;0.70;0.70;;;24.80;49.30;;;;;;5084636;28;45284;-67
2023/09/20 10:54:26;;;;;;;1.02;0.90;;;24.90;49.30;;;;;;5042222;28;45439;-67
2023/09/20 10:57:02;;;;;;;1.63;0.80;;;25.00;49.70;;;;;;5041902;28;45542;-67
2023/09/20 10:59:31;;;;;;;1.42;0.75;;;25.00;49.10;;;;;;5066901;27;45393;-67
2023/09/20 11:02:02;;;;;;;0.93;0.88;;;25.10;49.00;;;;;;5087368;27;45517;-67
2023/09/20 11:04:29;;;;;;;0.70;0.70;;;25.20;48.90;;;;;;5087471;28;47292;-67
2023/09/20 11:06:59;;;;;;;1.00;0.90;;;25.30;48.80;;;;;;5089160;27;45482;-67
2023/09/20 11:09:30;;;;;;;0.80;0.80;;;25.30;48.70;;;;;;5089213;27;45142;-68
2023/09/20 11:12:03;;;;;;;1.23;1.13;;;25.40;48.40;;;;;;5089721;27;45421;-67
2023/09/20 11:14:32;;;;;;;1.85;0.88;;;25.50;48.50;;;;;;5089344;27;45658;-67
2023/09/20 11:16:59;;;;;;;1.70;0.95;;;25.60;48.30;;;;;;5089356;27;45295;-67
2023/09/20 11:19:26;;;;;;;1.48;0.80;;;25.70;48.10;;;;;;5089525;27;45226;-67
2023/09/20 11:21:53;;;;;;;1.35;0.80;;;25.80;48.00;;;;;;5089651;27;45442;-67
2023/09/20 11:24:20;;;;;;;0.70;0.70;;;25.90;47.90;;;;;;5089356;27;46370;-67
2023/09/20 11:26:48;;;;;;;1.58;0.98;;;25.90;47.80;;;;;;5089327;27;45312;-67
2023/09/20 11:29:18;;;;;;;1.00;0.90;;;26.00;47.70;;;;;;5089274;27;45381;-68
2023/09/20 11:31:47;;;;;;;1.17;0.75;;;26.10;47.60;;;;;;5089331;27;45466;-68
2023/09/20 11:34:17;;;;;;;2.17;0.90;;;26.10;47.40;;;;;;5089064;27;45427;-68
2023/09/20 11:36:44;;;;;;;0.93;0.80;;;26.20;47.40;;;;;;5088881;27;45337;-68
2023/09/20 11:39:14;;;;;;;1.60;1.00;;;26.30;47.40;;;;;;5089387;27;45361;-67
2023/09/20 11:41:43;;;;;;;0.80;0.80;;;26.40;47.30;;;;;;5089303;27;45379;-68
2023/09/20 11:44:10;;;;;;;0.95;0.88;;;26.40;47.20;;;;;;5088995;27;46381;-67
2023/09/20 11:46:37;;;;;;;2.35;0.80;;;26.50;47.00;;;;;;5088874;27;45303;-67
2023/09/20 11:49:06;;;;;;;0.80;0.80;;;26.60;47.10;;;;;;5089044;27;45367;-67
2023/09/20 11:51:35;;;;;;;1.77;0.95;;;26.60;47.00;;;;;;5089067;27;45249;-67
2023/09/20 11:54:05;;;;;;;1.15;0.88;;;26.70;46.80;;;;;;5088641;27;46867;-67
2023/09/20 11:56:34;;;;;;;1.55;0.80;;;26.80;46.70;;;;;;5088675;27;45216;-68
2023/09/20 11:59:02;;;;;;;0.90;0.90;;;26.90;46.60;;;;;;5088434;27;45330;-67
2023/09/20 12:01:30;;;;;;;1.10;1.00;;;26.90;46.40;;;;;;5088908;27;45528;-67
2023/09/20 12:03:56;;;;;;;1.00;0.70;;;27.00;46.30;;;;;;5088582;27;45338;-67
2023/09/20 12:06:25;;;;;;;1.10;1.00;;;27.10;46.20;;;;;;5088534;27;45398;-67
2023/09/20 12:08:52;;;;;;;0.68;0.68;;;27.10;46.10;;;;;;5088778;27;45378;-67
2023/09/20 12:11:19;;;;;;;0.57;0.57;;;27.20;46.10;;;;;;5088809;27;45356;-67
2023/09/20 12:13:46;;;;;;;0.70;0.70;;;27.30;46.20;;;;;;5088469;27;45368;-67
2023/09/20 12:16:14;;;;;;;1.20;0.90;;;27.30;46.00;;;;;;5089203;27;45121;-67
2023/09/20 12:18:41;;;;;;;0.77;0.77;;;27.40;45.90;;;;;;5088407;27;45468;-67
2023/09/20 12:21:08;;;;;;;0.73;0.70;;;27.50;45.70;;;;;;5089287;27;45374;-67
2023/09/20 12:23:38;;;;;;;1.25;0.88;;;27.50;45.60;;;;;;5088518;27;45368;-67
2023/09/20 12:26:05;;;;;;;0.70;0.70;;;27.60;45.60;;;;;;5089071;27;45321;-67
2023/09/20 12:28:32;;;;;;;0.95;0.60;;;27.70;45.50;;;;;;5088822;27;45373;-67
2023/09/20 12:30:59;;;;;;;1.38;0.70;;;27.70;45.50;;;;;;5089337;27;45370;-67
2023/09/20 12:33:26;;;;;;;0.70;0.70;;;27.80;45.50;;;;;;5088979;27;45283;-67
2023/09/20 12:35:53;;;;;;;0.80;0.80;;;27.80;45.40;;;;;;5088831;27;45283;-67
2023/09/20 12:38:20;;;;;;;1.98;0.93;;;27.90;45.30;;;;;;5088430;27;45362;-67
2023/09/20 12:40:48;;;;;;;3.70;0.93;;;27.90;45.20;;;;;;5088405;27;45423;-68
2023/09/20 12:43:15;;;;;;;0.90;0.90;;;28.00;45.20;;;;;;5087631;27;46581;-67
2023/09/20 12:45:42;;;;;;;1.08;0.98;;;28.10;45.30;;;;;;5088376;27;45381;-67
2023/09/20 12:48:09;;;;;;;0.70;0.70;;;28.10;45.00;;;;;;5082666;27;45391;-67
2023/09/20 12:50:37;;;;;;;1.63;0.90;;;28.20;44.80;;;;;;5087699;27;45248;-67
2023/09/20 12:53:06;;;;;;;1.38;1.02;;;28.20;45.00;;;;;;5087184;27;46672;-66
2023/09/20 12:55:36;;;;;;;0.85;0.82;;;28.30;45.00;;;;;;5087317;27;45265;-67
2023/09/20 12:58:05;;;;;;;0.90;0.73;;;28.40;45.00;;;;;;5086979;27;45457;-66
2023/09/20 13:00:35;;;;;;;1.85;0.80;;;28.40;44.90;;;;;;5088075;27;45351;-67
2023/09/20 13:03:03;;;;;;;1.40;0.80;;;28.50;44.80;;;;;;5087455;27;45292;-66
2023/09/20 13:05:30;;;;;;;0.70;0.70;;;28.50;44.50;;;;;;5087479;27;45405;-66
2023/09/20 13:07:57;;;;;;;0.70;0.70;;;28.60;44.50;;;;;;5086938;27;45431;-67
2023/09/20 13:10:24;;;;;;;1.17;0.80;;;28.60;44.40;;;;;;5087818;27;45569;-67
2023/09/20 13:12:51;;;;;;;1.70;0.73;;;28.70;44.20;;;;;;5087064;27;45378;-66
2023/09/20 13:15:20;;;;;;;1.58;0.90;;;28.80;44.10;;;;;;5087661;27;45252;-66
2023/09/20 13:17:48;;;;;;;0.88;0.88;;;28.80;44.30;;;;;;5087411;27;45312;-67
2023/09/20 13:20:15;;;;;;;0.73;0.73;;;28.90;44.30;;;;;;5088179;27;45229;-66
2023/09/20 13:22:42;;;;;;;0.88;0.73;;;28.90;43.90;;;;;;5087051;28;45340;-66
2023/09/20 13:25:09;;;;;;;1.58;0.70;;;28.90;44.10;;;;;;5086143;27;45570;-66
2023/09/20 13:27:36;;;;;;;0.70;0.70;;;29.00;44.00;;;;;;5087338;27;45371;-67
2023/09/20 13:30:07;;;;;;;0.70;0.70;;;29.00;44.00;;;;;;5087348;27;45556;-67
2023/09/20 13:32:35;;;;;;;1.23;0.90;;;29.10;44.10;;;;;;5086415;27;46719;-66
2023/09/20 13:35:03;;;;;;;0.90;0.90;;;29.10;44.10;;;;;;5086656;27;45419;-66